KTOI

Troy Municipal at N Kenneth Campbell Field Airport

Troy, Alabama, USA
KTOI 251724Z 2518/2618 15007KT P6SM VCSH BKN035 FM251900 15008KT P6SM VCTS BKN035CB FM260100 13003KT P6SM BKN050 FM261000 18003KT P6SM OVC025
Issued Valid From Valid To
Sep-25 @ 17:24 UTC
(24 minutes ago)
Sep-25 @ 18:00 UTC
(in 12 minutes)
Sep-26 @ 18:00 UTC
(in 24 hours)
Sep-25 @ 18:00 to Sep-25 @ 19:00
KTOI 251724Z 2518/2618 15007KT P6SM VCSH BKN035
Wind Visibility Clouds
150° at 7 knots Greater than 6 miles
  • Broken at 3,500' AGL
From Sep-25 @ 19:00 to Sep-26 @ 01:00
FM251900 15008KT P6SM VCTS BKN035CB
Wind Visibility Clouds Conditions
150° at 8 knots Greater than 6 miles
  • Broken at 3,500' AGL
  • Area Thunderstorm
From Sep-26 @ 01:00 to Sep-26 @ 10:00
FM260100 13003KT P6SM BKN050
Wind Visibility Clouds
130° at 3 knots Greater than 6 miles
  • Broken at 5,000' AGL
From Sep-26 @ 10:00 to Sep-26 @ 18:00
FM261000 18003KT P6SM OVC025
Wind Visibility Clouds
180° at 3 knots Greater than 6 miles
  • Overcast at 2,500' AGL
KTOI 251724Z 2518/2618 15007KT P6SM VCSH BKN035 FM251900 15008KT P6SM VCTS BKN035CB FM260100 13003KT P6SM BKN050 FM261000 18003KT P6SM OVC025
Issued Sep-25 @ 17:24 UTC
(24 minutes ago)
Valid From Sep-25 @ 18:00 UTC
(in 12 minutes)
Valid To Sep-26 @ 18:00 UTC
(in 24 hours)
Sep-25 @ 18:00 - Sep-25 @ 19:00
Wind Visibility
150° at 7 knots Greater than 6 miles
Clouds
  • Broken at 3,500' AGL
From Sep-25 @ 19:00 - Sep-26 @ 01:00
Wind Visibility
150° at 8 knots Greater than 6 miles
Clouds
  • Broken at 3,500' AGL
Conditions
  • Area Thunderstorm
From Sep-26 @ 01:00 - Sep-26 @ 10:00
Wind Visibility
130° at 3 knots Greater than 6 miles
Clouds
  • Broken at 5,000' AGL
From Sep-26 @ 10:00 - Sep-26 @ 18:00
Wind Visibility
180° at 3 knots Greater than 6 miles
Clouds
  • Overcast at 2,500' AGL